aviador You're here:

KGRF Decoded Metar

FORT LEWIS in WA, USA
Report Time2017-11-20 12:58:00
UTC Time2017-11-20 13:34:24
Flight Rules vfr VFR
WindCalm
Visibility9999 m
Phenomena:Rain
Clouds:Scattered 032 Hf
CeilingNone
Temp09°C (ISA -5)
Dew Point09°C (100% RH)
AAT8.8°C
QNH999 hPa
Density Alt289 ft
Elevation302 ft
Report Wrong Elevation
Raw Report
KGRF 201258Z AUTO 00000KT 7SM RA SCT032 09/09 A2951 RMK AO2
RAB1158E11RAB14E27DZB27E34RAB36 SLP998 P0004 T00910091 $=

Extra information for KGRF:More info

Metar Taf Metar & Taf Last 4 Metars F.Rules Stats Wind Profile Meteogram Temp Stats Airport Information Weather charts Add Link Nearby VenuesMetar ALERT Operation Metar Decoded Social comments

AIRNAV info for KGRF